Time;durP1;ratioP1;P1;durP2;ratioP2;P2;SDS_P1;SDS_P2;PMS_P1;PMS_P2;Temp;Humidity;BMP_temperature;BMP_pressure;BME280_temperature;BME280_humidity;BME280_pressure;Samples;Min_cycle;Max_cycle;Signal;HPM_P1;HPM_P2
2023/03/05 00:02:00;;;;;;;3.70;0.50;;;4.50;99.90;;;;;;4991892;28;20054;-87
2023/03/05 00:04:46;;;;;;;5.20;1.15;;;4.50;99.90;;;;;;4973087;28;20077;-87
2023/03/05 00:07:32;;;;;;;5.18;0.93;;;4.40;99.90;;;;;;4991065;28;20141;-86
2023/03/05 00:10:19;;;;;;;5.20;0.60;;;4.30;99.90;;;;;;4998590;28;20050;-87
2023/03/05 00:13:05;;;;;;;6.78;0.60;;;4.20;99.90;;;;;;4975372;28;20054;-88
2023/03/05 00:15:51;;;;;;;7.63;1.60;;;4.10;99.90;;;;;;4979748;28;20511;-87
2023/03/05 00:18:37;;;;;;;5.65;1.30;;;4.00;99.90;;;;;;4990827;28;20406;-87
2023/03/05 00:21:26;;;;;;;18.55;3.83;;;4.00;99.90;;;;;;4990839;28;20734;-87
2023/03/05 00:24:16;;;;;;;11.55;1.80;;;4.00;99.90;;;;;;4991291;28;20050;-86
2023/03/05 00:27:03;;;;;;;6.68;1.40;;;4.10;99.90;;;;;;4990941;28;20270;-89
2023/03/05 00:29:49;;;;;;;19.85;3.80;;;4.20;99.90;;;;;;4978690;28;20091;-87
2023/03/05 00:32:35;;;;;;;4.97;0.63;;;4.20;99.90;;;;;;5001062;28;20081;-87
2023/03/05 00:35:21;;;;;;;4.93;1.58;;;4.10;99.90;;;;;;4973536;28;20050;-87
2023/03/05 00:38:08;;;;;;;4.75;0.85;;;4.10;99.90;;;;;;4990610;28;20104;-86
2023/03/05 00:40:54;;;;;;;8.57;1.02;;;4.10;99.90;;;;;;4959695;28;20135;-87
2023/03/05 00:43:40;;;;;;;12.23;1.05;;;4.10;99.90;;;;;;4990485;28;20533;-88
2023/03/05 00:46:26;;;;;;;9.25;0.77;;;4.10;99.90;;;;;;4997073;28;20104;-88
2023/03/05 00:49:12;;;;;;;6.57;0.80;;;4.00;99.90;;;;;;4992711;28;20046;-89
2023/03/05 00:51:58;;;;;;;6.95;0.68;;;4.00;99.90;;;;;;4975600;28;20050;-88
2023/03/05 00:54:44;;;;;;;5.20;0.75;;;3.90;99.90;;;;;;4972590;28;20100;-88
2023/03/05 00:57:30;;;;;;;3.63;0.60;;;3.80;99.90;;;;;;4990528;28;20065;-87
2023/03/05 01:00:17;;;;;;;12.05;2.70;;;3.80;99.90;;;;;;4990736;28;20215;-86
2023/03/05 01:03:03;;;;;;;5.07;0.85;;;3.80;99.90;;;;;;4979442;28;20046;-88
2023/03/05 01:05:49;;;;;;;12.77;0.93;;;3.90;99.90;;;;;;4993831;28;20046;-87
2023/03/05 01:08:36;;;;;;;7.68;0.73;;;3.90;99.90;;;;;;4991862;28;20089;-87
2023/03/05 01:11:23;;;;;;;6.28;0.65;;;4.00;99.90;;;;;;4976863;28;20058;-88
2023/03/05 01:14:09;;;;;;;4.45;1.23;;;4.00;99.90;;;;;;4975389;28;20483;-88
2023/03/05 01:16:55;;;;;;;8.20;1.77;;;4.00;99.90;;;;;;4972941;28;20054;-87
2023/03/05 01:19:41;;;;;;;5.55;0.90;;;3.90;99.90;;;;;;4979346;28;20081;-87
2023/03/05 01:22:28;;;;;;;8.13;1.08;;;3.90;99.90;;;;;;5000298;28;20054;-87
2023/03/05 01:25:15;;;;;;;11.30;1.00;;;3.90;99.90;;;;;;5005327;28;20050;-88
2023/03/05 01:28:01;;;;;;;8.00;1.08;;;3.90;99.90;;;;;;5003769;28;20055;-86
2023/03/05 01:30:47;;;;;;;9.40;1.10;;;3.90;99.90;;;;;;4979984;28;20047;-86
2023/03/05 01:33:34;;;;;;;7.60;1.00;;;3.90;99.90;;;;;;4993299;28;20059;-86
2023/03/05 01:36:23;;;;;;;11.38;1.63;;;3.90;99.90;;;;;;5001418;28;20058;-85
2023/03/05 01:39:09;;;;;;;5.35;1.13;;;3.90;99.90;;;;;;5001675;28;20054;-87
2023/03/05 01:41:55;;;;;;;6.70;1.00;;;3.90;99.90;;;;;;4993589;28;20047;-87
2023/03/05 01:45:01;;;;;;;4.38;1.00;;;3.90;99.90;;;;;;4976264;28;20050;-88
2023/03/05 01:47:47;;;;;;;5.53;0.83;;;3.80;99.90;;;;;;4979336;28;20434;-87
2023/03/05 01:50:33;;;;;;;9.98;1.08;;;3.80;99.90;;;;;;4993979;28;20385;-88
2023/03/05 01:53:19;;;;;;;13.27;2.55;;;3.80;99.90;;;;;;4996677;28;20529;-87
2023/03/05 01:56:06;;;;;;;6.25;1.10;;;3.80;99.90;;;;;;4984282;28;20448;-87
2023/03/05 01:58:53;;;;;;;12.68;1.73;;;3.80;99.90;;;;;;4992952;28;20046;-87
2023/03/05 02:01:46;;;;;;;3.53;1.02;;;3.80;99.90;;;;;;4976250;28;20399;-87
2023/03/05 02:04:44;;;;;;;5.85;0.85;;;3.80;99.90;;;;;;4993330;28;20046;-86
2023/03/05 02:07:32;;;;;;;3.58;0.55;;;4.00;99.90;;;;;;4978890;28;20055;-85
2023/03/05 02:10:22;;;;;;;5.75;1.52;;;4.00;99.90;;;;;;4996553;28;20462;-85
2023/03/05 02:13:15;;;;;;;6.53;1.35;;;4.00;99.90;;;;;;4986924;28;20054;-86
2023/03/05 02:16:02;;;;;;;11.68;1.08;;;4.00;99.90;;;;;;4976087;28;20050;-86
2023/03/05 02:18:48;;;;;;;12.40;0.95;;;4.00;99.90;;;;;;4992943;28;20130;-86
2023/03/05 02:21:45;;;;;;;5.60;1.08;;;4.00;99.90;;;;;;4975886;28;20104;-85
2023/03/05 02:24:36;;;;;;;4.72;0.57;;;4.10;99.90;;;;;;4982606;28;20051;-86
2023/03/05 02:27:33;;;;;;;4.65;1.48;;;4.00;99.90;;;;;;4993332;28;20503;-86
2023/03/05 02:30:20;;;;;;;8.82;0.93;;;3.90;99.90;;;;;;4963295;28;20060;-87
2023/03/05 02:33:06;;;;;;;5.05;1.73;;;3.90;99.90;;;;;;4974482;28;20051;-87
2023/03/05 02:35:52;;;;;;;5.22;0.70;;;3.80;99.90;;;;;;4976940;28;20058;-86
2023/03/05 02:38:40;;;;;;;5.88;1.05;;;3.70;99.90;;;;;;4981172;28;20137;-87
2023/03/05 02:41:26;;;;;;;8.38;1.85;;;3.70;99.90;;;;;;4975667;28;20069;-86
2023/03/05 02:44:12;;;;;;;11.95;2.53;;;3.60;99.90;;;;;;4996144;28;20097;-86
2023/03/05 02:46:58;;;;;;;8.20;1.83;;;3.60;99.90;;;;;;4995555;28;20061;-87
2023/03/05 02:49:45;;;;;;;5.97;1.13;;;3.60;99.90;;;;;;4994525;28;20459;-86
2023/03/05 02:52:32;;;;;;;10.55;2.10;;;3.50;99.90;;;;;;4972511;28;20062;-86
2023/03/05 02:55:18;;;;;;;13.65;1.20;;;3.50;99.90;;;;;;4978157;28;20062;-86
2023/03/05 02:58:04;;;;;;;7.05;1.02;;;3.50;99.90;;;;;;4986465;28;20129;-86
2023/03/05 03:00:50;;;;;;;8.40;1.25;;;3.50;99.90;;;;;;4976648;28;20054;-86
2023/03/05 03:03:37;;;;;;;4.25;1.05;;;3.60;99.90;;;;;;4975978;28;20089;-86
2023/03/05 03:06:23;;;;;;;6.07;1.23;;;3.60;99.90;;;;;;4973659;28;20051;-87
2023/03/05 03:09:09;;;;;;;6.00;1.25;;;3.60;99.90;;;;;;4963452;28;20440;-86
2023/03/05 03:11:55;;;;;;;10.65;1.45;;;3.60;99.90;;;;;;4972595;28;20483;-86
2023/03/05 03:14:42;;;;;;;12.65;1.15;;;3.70;99.90;;;;;;4971938;28;20082;-86
2023/03/05 03:17:28;;;;;;;12.88;1.77;;;3.80;99.90;;;;;;4973026;28;20101;-86
2023/03/05 03:20:17;;;;;;;10.35;1.20;;;3.80;99.90;;;;;;4972028;28;20057;-87
2023/03/05 03:23:04;;;;;;;10.60;1.65;;;3.80;99.90;;;;;;4977410;28;20055;-87
2023/03/05 03:25:50;;;;;;;10.50;1.02;;;3.80;99.90;;;;;;4979524;28;20134;-86
2023/03/05 03:28:36;;;;;;;8.63;1.70;;;3.80;99.90;;;;;;4972912;28;20094;-87
2023/03/05 03:31:23;;;;;;;2.33;0.40;;;3.80;99.90;;;;;;4972495;28;20470;-87
2023/03/05 03:34:09;;;;;;;8.20;0.52;;;3.80;99.90;;;;;;4971212;28;20050;-86
2023/03/05 03:36:55;;;;;;;8.35;0.90;;;3.80;99.90;;;;;;4971423;28;20058;-87
2023/03/05 03:39:41;;;;;;;6.15;1.08;;;3.80;99.90;;;;;;4984957;28;20054;-87
2023/03/05 03:42:27;;;;;;;2.95;0.90;;;3.80;99.90;;;;;;4970737;28;20057;-86
2023/03/05 03:45:13;;;;;;;6.13;0.63;;;3.80;99.90;;;;;;4971016;28;20154;-86
2023/03/05 03:47:59;;;;;;;3.85;0.80;;;3.70;99.90;;;;;;4970123;28;20118;-86
2023/03/05 03:50:45;;;;;;;6.10;0.70;;;3.70;99.90;;;;;;4970635;28;20058;-87
2023/03/05 03:53:32;;;;;;;4.25;1.30;;;3.70;99.90;;;;;;4975199;28;20111;-86
2023/03/05 03:56:18;;;;;;;5.05;0.80;;;3.80;99.90;;;;;;4975140;28;20140;-87
2023/03/05 03:59:04;;;;;;;5.68;0.93;;;3.80;99.90;;;;;;4975282;28;20138;-86
2023/03/05 04:01:50;;;;;;;4.35;0.95;;;3.80;99.90;;;;;;4970399;28;20055;-86
2023/03/05 04:04:37;;;;;;;9.90;1.45;;;3.80;99.90;;;;;;4984025;28;20062;-86
2023/03/05 04:07:23;;;;;;;5.90;0.80;;;3.80;99.90;;;;;;4972451;28;20062;-87
2023/03/05 04:10:10;;;;;;;6.18;1.33;;;3.80;99.90;;;;;;4973559;28;20051;-86
2023/03/05 04:12:56;;;;;;;15.38;1.27;;;3.80;99.90;;;;;;4970117;28;20051;-86
2023/03/05 04:15:42;;;;;;;7.15;1.35;;;3.80;99.90;;;;;;4972490;28;20058;-87
2023/03/05 04:18:29;;;;;;;12.93;1.42;;;3.80;99.90;;;;;;4971665;28;20043;-86
2023/03/05 04:21:15;;;;;;;11.45;1.77;;;3.80;99.90;;;;;;4971140;28;20118;-87
2023/03/05 04:24:01;;;;;;;4.47;0.60;;;3.90;99.90;;;;;;4972500;28;20073;-86
2023/03/05 04:26:47;;;;;;;8.88;2.25;;;3.90;99.90;;;;;;4973561;28;20117;-86
2023/03/05 04:29:34;;;;;;;7.28;1.00;;;3.70;99.90;;;;;;4971699;28;20137;-86
2023/03/05 04:32:22;;;;;;;5.63;0.60;;;3.60;99.90;;;;;;4971833;28;20565;-86
2023/03/05 04:35:09;;;;;;;12.30;2.28;;;3.50;99.90;;;;;;4975027;28;20051;-86
2023/03/05 04:37:55;;;;;;;10.70;1.30;;;3.50;99.90;;;;;;4969544;28;20090;-86
2023/03/05 04:40:41;;;;;;;5.97;1.65;;;3.50;99.90;;;;;;4987567;28;20054;-86
2023/03/05 04:43:28;;;;;;;13.13;1.33;;;3.50;99.90;;;;;;4969548;28;20098;-86
2023/03/05 04:46:14;;;;;;;8.00;2.28;;;3.50;99.90;;;;;;4969724;28;20058;-86
2023/03/05 04:49:00;;;;;;;10.13;1.25;;;3.50;99.90;;;;;;4971397;28;20047;-86
2023/03/05 04:51:46;;;;;;;12.27;1.60;;;3.50;99.90;;;;;;4978133;28;20054;-86
2023/03/05 04:54:32;;;;;;;11.73;1.63;;;3.50;99.90;;;;;;4957526;28;20062;-87
2023/03/05 04:57:18;;;;;;;16.95;2.92;;;3.60;99.90;;;;;;4985044;28;20050;-87
2023/03/05 05:00:13;;;;;;;12.63;1.67;;;3.60;99.90;;;;;;4975673;28;20149;-86
2023/03/05 05:02:59;;;;;;;12.57;2.25;;;3.60;99.90;;;;;;4975459;28;20054;-87
2023/03/05 05:05:52;;;;;;;10.95;2.30;;;3.60;99.90;;;;;;4975379;28;20053;-87
2023/03/05 05:08:38;;;;;;;11.85;1.30;;;3.60;99.90;;;;;;4975029;28;20050;-87
2023/03/05 05:11:24;;;;;;;6.38;1.20;;;3.60;99.90;;;;;;4981459;28;20101;-87
2023/03/05 05:14:11;;;;;;;16.48;2.50;;;3.60;99.90;;;;;;4978782;28;20093;-87
2023/03/05 05:16:58;;;;;;;10.98;1.92;;;3.70;99.90;;;;;;4995984;28;20054;-87
2023/03/05 05:19:44;;;;;;;4.90;1.15;;;3.70;99.90;;;;;;4975161;28;20137;-87
2023/03/05 05:22:31;;;;;;;8.93;1.00;;;3.70;99.90;;;;;;4974508;28;20050;-87
2023/03/05 05:25:17;;;;;;;8.25;0.80;;;3.70;99.90;;;;;;4974221;28;20046;-87
2023/03/05 05:28:03;;;;;;;8.93;1.08;;;3.70;99.90;;;;;;4981019;28;20062;-87
2023/03/05 05:30:50;;;;;;;3.22;0.70;;;3.70;99.90;;;;;;4975381;28;20138;-86
2023/03/05 05:33:36;;;;;;;4.78;0.88;;;3.70;99.90;;;;;;4980711;28;20109;-85
2023/03/05 05:36:22;;;;;;;11.75;1.23;;;3.70;99.90;;;;;;4973645;28;20057;-87
2023/03/05 05:39:08;;;;;;;7.75;1.17;;;3.70;99.90;;;;;;4973521;28;20063;-87
2023/03/05 05:41:54;;;;;;;13.13;2.63;;;3.70;99.90;;;;;;4974185;28;20105;-87
2023/03/05 05:44:40;;;;;;;8.27;1.17;;;3.70;99.90;;;;;;4981962;28;20141;-87
2023/03/05 05:47:27;;;;;;;8.77;1.38;;;3.60;99.90;;;;;;4983224;28;20057;-86
2023/03/05 05:50:13;;;;;;;6.63;1.55;;;3.60;99.90;;;;;;4980211;28;20050;-86
2023/03/05 05:52:59;;;;;;;9.60;0.90;;;3.60;99.90;;;;;;4987997;28;20062;-86
2023/03/05 05:55:45;;;;;;;5.40;1.15;;;3.60;99.90;;;;;;4973738;28;20058;-86
2023/03/05 05:58:31;;;;;;;6.22;0.85;;;3.60;99.90;;;;;;4974756;28;20511;-86
2023/03/05 06:01:28;;;;;;;6.43;0.63;;;3.60;99.90;;;;;;4973600;28;20050;-87
2023/03/05 06:04:14;;;;;;;3.80;0.50;;;3.60;99.90;;;;;;4985939;28;20112;-87
2023/03/05 06:07:01;;;;;;;7.35;1.10;;;3.60;99.90;;;;;;4980073;28;20050;-88
2023/03/05 06:09:48;;;;;;;10.40;1.23;;;3.60;99.90;;;;;;4972160;28;20058;-86
2023/03/05 06:12:34;;;;;;;6.53;1.10;;;3.60;99.90;;;;;;4974761;28;20141;-87
2023/03/05 06:15:20;;;;;;;5.63;0.80;;;3.60;99.90;;;;;;4973684;28;20051;-86
2023/03/05 06:18:06;;;;;;;5.13;1.63;;;3.60;99.90;;;;;;4977646;28;20427;-86
2023/03/05 06:21:13;;;;;;;6.15;1.05;;;3.60;99.90;;;;;;4976578;28;20051;-87
2023/03/05 06:23:59;;;;;;;4.68;1.10;;;3.50;99.90;;;;;;4980529;28;20051;-86
2023/03/05 06:26:47;;;;;;;7.30;0.75;;;3.60;99.90;;;;;;4999106;28;20050;-87
2023/03/05 06:29:33;;;;;;;8.60;1.25;;;3.60;99.90;;;;;;4980951;28;20090;-86
2023/03/05 06:32:19;;;;;;;9.82;1.35;;;3.60;99.90;;;;;;4978790;28;20105;-86
2023/03/05 06:35:06;;;;;;;6.25;0.80;;;3.70;99.90;;;;;;4981692;28;20590;-87
2023/03/05 06:37:52;;;;;;;4.68;0.85;;;3.70;99.90;;;;;;4972214;28;20050;-86
2023/03/05 06:40:38;;;;;;;15.20;1.35;;;3.70;99.90;;;;;;4972598;28;20055;-87
2023/03/05 06:43:24;;;;;;;12.00;1.45;;;3.80;99.90;;;;;;4972075;28;20046;-88
2023/03/05 06:46:12;;;;;;;8.88;1.42;;;3.80;99.90;;;;;;4975652;28;20050;-87
2023/03/05 06:49:01;;;;;;;12.60;1.38;;;3.90;99.90;;;;;;4986855;28;20082;-87
2023/03/05 06:51:47;;;;;;;11.13;1.50;;;4.00;99.90;;;;;;4979266;28;20055;-86
2023/03/05 06:54:33;;;;;;;14.75;1.50;;;4.00;99.90;;;;;;4992204;28;20057;-87
2023/03/05 06:57:19;;;;;;;13.52;1.20;;;4.00;99.90;;;;;;4975187;28;20053;-86
2023/03/05 07:00:09;;;;;;;9.75;1.50;;;4.10;99.90;;;;;;4991718;28;20132;-87
2023/03/05 07:02:55;;;;;;;7.22;1.38;;;4.10;99.90;;;;;;4992740;28;20042;-87
2023/03/05 07:05:42;;;;;;;9.73;0.93;;;4.10;99.90;;;;;;4998360;28;20061;-86
2023/03/05 07:08:28;;;;;;;13.65;1.40;;;4.30;99.90;;;;;;4989382;28;20053;-86
2023/03/05 07:11:17;;;;;;;7.07;0.93;;;4.30;99.90;;;;;;4979139;28;20050;-87
2023/03/05 07:14:04;;;;;;;7.78;1.40;;;4.30;99.90;;;;;;4991560;28;20213;-88
2023/03/05 07:16:50;;;;;;;10.38;3.00;;;4.40;99.90;;;;;;4974727;28;20054;-87
2023/03/05 07:19:37;;;;;;;6.15;0.85;;;4.40;99.90;;;;;;4973937;28;20069;-87
2023/03/05 07:22:23;;;;;;;8.48;0.93;;;4.40;99.90;;;;;;4974044;28;20046;-87
2023/03/05 07:25:09;;;;;;;7.65;2.00;;;4.50;99.90;;;;;;4977762;28;20050;-87
2023/03/05 07:27:56;;;;;;;7.10;1.10;;;4.50;99.90;;;;;;4974545;28;20058;-87
2023/03/05 07:30:42;;;;;;;7.53;1.40;;;4.60;99.90;;;;;;4992495;28;20062;-88
2023/03/05 07:33:28;;;;;;;8.02;1.00;;;4.60;99.90;;;;;;4974659;28;20133;-88
2023/03/05 07:36:14;;;;;;;7.25;1.23;;;4.70;99.90;;;;;;4981513;28;20502;-87
2023/03/05 07:39:03;;;;;;;8.35;1.50;;;4.70;99.90;;;;;;4991142;28;20053;-87
2023/03/05 07:41:51;;;;;;;7.72;0.93;;;4.80;99.90;;;;;;4992454;28;20057;-86
2023/03/05 07:44:37;;;;;;;6.97;1.10;;;4.80;99.90;;;;;;4993820;28;20774;-86
2023/03/05 07:47:24;;;;;;;10.98;2.13;;;4.80;99.90;;;;;;4991629;28;20050;-87
2023/03/05 07:50:10;;;;;;;4.60;0.90;;;4.80;99.90;;;;;;4974490;28;20487;-86
2023/03/05 07:52:56;;;;;;;3.65;0.98;;;4.90;99.90;;;;;;4991794;28;20062;-87
2023/03/05 07:55:44;;;;;;;18.35;2.05;;;4.90;99.90;;;;;;4995389;28;20053;-86
2023/03/05 07:58:30;;;;;;;10.48;2.55;;;5.00;99.90;;;;;;4989984;28;20057;-87
2023/03/05 08:01:16;;;;;;;5.25;1.00;;;5.00;99.90;;;;;;4979981;28;20054;-87
2023/03/05 08:04:03;;;;;;;7.93;1.00;;;5.00;99.90;;;;;;4990902;28;20054;-87
2023/03/05 08:06:50;;;;;;;5.65;1.05;;;5.10;99.90;;;;;;4989508;28;20125;-87
2023/03/05 08:09:36;;;;;;;5.38;1.20;;;5.00;99.90;;;;;;4976191;28;20395;-86
2023/03/05 08:12:22;;;;;;;6.93;0.70;;;5.10;99.90;;;;;;4993077;28;20077;-87
2023/03/05 08:15:08;;;;;;;4.57;1.25;;;5.20;99.90;;;;;;4995753;28;20084;-88
2023/03/05 08:17:54;;;;;;;6.00;0.70;;;5.30;99.90;;;;;;4972915;28;20077;-87
2023/03/05 08:20:40;;;;;;;6.78;1.33;;;5.50;99.90;;;;;;4959773;28;20145;-87
2023/03/05 08:23:27;;;;;;;11.43;1.63;;;5.60;99.90;;;;;;4990636;28;20043;-88
2023/03/05 08:26:16;;;;;;;8.07;2.55;;;5.70;99.90;;;;;;4990682;28;20050;-88
2023/03/05 08:29:02;;;;;;;10.57;1.83;;;5.70;99.90;;;;;;4980471;28;20050;-87
2023/03/05 08:31:49;;;;;;;9.25;1.25;;;5.60;99.90;;;;;;4999762;28;20050;-87
2023/03/05 08:34:36;;;;;;;5.95;1.23;;;5.50;99.90;;;;;;4997836;28;20046;-87
2023/03/05 08:37:22;;;;;;;5.05;1.13;;;5.40;99.90;;;;;;4994155;28;20422;-86
2023/03/05 08:40:10;;;;;;;31.13;4.15;;;5.30;99.90;;;;;;4960944;28;20046;-87
2023/03/05 08:42:57;;;;;;;15.93;2.40;;;5.20;99.90;;;;;;4992263;28;20054;-86
2023/03/05 08:45:50;;;;;;;7.18;1.40;;;5.20;99.90;;;;;;4984380;28;20054;-87
2023/03/05 08:48:36;;;;;;;10.50;1.80;;;5.30;99.90;;;;;;4991669;28;20050;-88
2023/03/05 08:51:24;;;;;;;11.23;1.80;;;5.50;99.90;;;;;;4991978;28;20093;-88
2023/03/05 08:54:10;;;;;;;7.60;1.23;;;5.60;99.90;;;;;;4991180;28;20051;-88
2023/03/05 08:56:56;;;;;;;6.22;1.05;;;5.70;99.90;;;;;;4991449;28;20050;-88
2023/03/05 08:59:42;;;;;;;8.30;1.08;;;5.80;99.90;;;;;;4992854;28;20047;-87
2023/03/05 09:02:28;;;;;;;8.52;1.35;;;5.80;99.90;;;;;;4977021;28;20081;-86
2023/03/05 09:05:18;;;;;;;7.35;1.17;;;5.80;99.90;;;;;;4989944;28;20116;-86
2023/03/05 09:08:04;;;;;;;14.77;2.17;;;5.80;99.90;;;;;;4992253;28;20093;-87
2023/03/05 09:10:50;;;;;;;11.23;1.40;;;5.80;99.90;;;;;;4993609;28;20470;-89
2023/03/05 09:13:36;;;;;;;12.23;1.45;;;5.90;99.90;;;;;;4974412;28;20133;-89
2023/03/05 09:16:22;;;;;;;6.25;1.15;;;5.80;99.90;;;;;;4981807;28;20081;-88
2023/03/05 09:19:11;;;;;;;6.93;1.15;;;6.00;99.90;;;;;;4973454;28;20061;-87
2023/03/05 09:21:57;;;;;;;10.60;2.00;;;6.10;99.90;;;;;;4960590;28;20089;-87
2023/03/05 09:24:43;;;;;;;8.15;1.00;;;6.20;99.90;;;;;;4978053;28;20080;-87
2023/03/05 09:27:35;;;;;;;7.05;1.02;;;6.30;99.90;;;;;;4980610;28;20097;-88
2023/03/05 09:30:21;;;;;;;8.50;1.05;;;6.50;99.90;;;;;;4981144;28;20052;-88
2023/03/05 09:33:07;;;;;;;6.25;1.52;;;6.60;99.90;;;;;;4975811;28;20057;-88
2023/03/05 09:35:53;;;;;;;7.35;0.82;;;6.70;99.90;;;;;;4959636;28;20062;-88
2023/03/05 09:38:40;;;;;;;3.92;1.00;;;7.00;99.90;;;;;;4973315;28;20058;-88
2023/03/05 09:41:35;;;;;;;7.90;0.82;;;7.10;99.90;;;;;;4973122;28;20066;-87
2023/03/05 09:44:34;;;;;;;6.10;1.30;;;7.20;99.90;;;;;;4981457;28;20442;-88
2023/03/05 09:47:29;;;;;;;7.75;0.63;;;7.40;99.90;;;;;;4999477;28;20056;-88
2023/03/05 09:50:22;;;;;;;5.60;1.02;;;7.50;99.90;;;;;;4982039;28;20116;-89
2023/03/05 09:53:35;;;;;;;9.75;1.25;;;7.60;99.90;;;;;;4959624;28;20051;-88
2023/03/05 09:56:55;;;;;;;9.88;2.10;;;7.60;99.90;;;;;;4973861;28;20050;-88
2023/03/05 09:59:47;;;;;;;8.35;1.00;;;7.90;99.90;;;;;;4985441;28;20050;-88
2023/03/05 10:02:38;;;;;;;5.68;0.90;;;7.90;99.90;;;;;;4975133;28;20051;-89
2023/03/05 10:05:44;;;;;;;7.55;1.60;;;8.20;99.90;;;;;;4962380;28;20112;-89
2023/03/05 10:08:56;;;;;;;14.35;2.40;;;8.20;99.90;;;;;;4959865;28;20046;-88
2023/03/05 10:12:02;;;;;;;9.48;1.40;;;8.10;99.90;;;;;;4970852;28;20423;-87
2023/03/05 10:14:48;;;;;;;8.40;1.17;;;7.90;99.90;;;;;;4973194;28;20051;-88
2023/03/05 10:17:46;;;;;;;6.60;1.02;;;7.60;99.90;;;;;;4973376;28;20065;-88
2023/03/05 10:20:43;;;;;;;6.43;1.35;;;7.60;99.90;;;;;;4962521;28;20137;-88
2023/03/05 10:24:15;;;;;;;9.68;1.17;;;7.40;99.90;;;;;;4979762;28;20042;-89
2023/03/05 10:27:18;;;;;;;5.25;0.70;;;7.50;99.90;;;;;;4936967;28;20061;-88
2023/03/05 10:30:22;;;;;;;7.38;0.98;;;7.50;99.90;;;;;;4990290;28;20058;-87
2023/03/05 10:33:20;;;;;;;5.45;0.90;;;7.60;99.90;;;;;;4973045;28;20125;-88
2023/03/05 10:36:34;;;;;;;7.15;1.00;;;7.80;99.90;;;;;;4972899;28;20139;-88
2023/03/05 10:39:39;;;;;;;9.35;1.05;;;8.10;99.90;;;;;;4976721;28;20085;-89
2023/03/05 10:42:43;;;;;;;10.60;1.00;;;8.40;99.90;;;;;;4979501;28;20043;-88
2023/03/05 10:45:38;;;;;;;7.50;0.98;;;8.60;99.90;;;;;;4975661;28;20038;-88
2023/03/05 10:48:27;;;;;;;;;;;8.80;99.90;;;;;;4973524;28;20545;-88
2023/03/05 10:51:23;;;;;;;4.47;1.00;;;8.60;99.90;;;;;;4961599;28;19926;-88
2023/03/05 10:54:29;;;;;;;8.63;1.08;;;8.80;99.90;;;;;;4984922;28;20046;-87
2023/03/05 10:57:29;;;;;;;5.32;1.05;;;9.30;99.90;;;;;;5000366;28;20080;-89
2023/03/05 11:00:25;;;;;;;6.72;0.75;;;9.40;99.90;;;;;;4997058;28;20050;-87
2023/03/05 11:03:18;;;;;;;;;;;9.20;99.90;;;;;;4999353;28;20047;-87
2023/03/05 11:06:04;;;;;;;6.75;1.20;;;9.10;99.90;;;;;;4978840;28;19972;-86
2023/03/05 11:08:50;;;;;;;3.83;0.70;;;9.00;99.90;;;;;;4995725;28;20113;-88
2023/03/05 11:11:36;;;;;;;8.43;1.25;;;8.80;99.90;;;;;;4995619;28;20141;-88
2023/03/05 11:14:29;;;;;;;7.07;1.10;;;8.90;99.90;;;;;;4994371;28;20070;-88
2023/03/05 11:17:31;;;;;;;8.27;1.73;;;8.60;99.90;;;;;;4971764;28;20054;-88
2023/03/05 11:20:30;;;;;;;6.53;1.20;;;8.90;99.90;;;;;;4996265;28;20050;-87
2023/03/05 11:23:22;;;;;;;6.75;1.40;;;9.30;99.90;;;;;;4985907;28;20050;-88
2023/03/05 11:26:11;;;;;;;6.43;0.80;;;9.40;99.90;;;;;;4981141;28;20120;-87
2023/03/05 11:29:00;;;;;;;6.35;1.23;;;9.20;99.90;;;;;;4975817;28;20503;-89
2023/03/05 11:31:46;;;;;;;5.57;0.70;;;9.00;99.90;;;;;;4975798;28;20054;-88
2023/03/05 11:34:34;;;;;;;5.88;0.98;;;8.90;99.90;;;;;;4992350;28;20491;-89
2023/03/05 11:37:29;;;;;;;8.80;1.05;;;9.60;99.90;;;;;;4993545;28;20194;-88
2023/03/05 11:40:21;;;;;;;8.52;1.00;;;10.20;99.90;;;;;;4997218;28;20056;-89
2023/03/05 11:43:14;;;;;;;6.05;0.85;;;10.70;99.90;;;;;;4995755;28;20051;-89
2023/03/05 11:46:02;;;;;;;4.28;0.70;;;10.60;99.90;;;;;;4998789;28;20050;-89
2023/03/05 11:48:49;;;;;;;6.95;0.98;;;11.10;99.10;;;;;;4979936;28;20049;-90
2023/03/05 11:51:55;;;;;;;4.57;0.50;;;11.40;98.90;;;;;;5003820;28;20121;-88
2023/03/05 11:55:07;;;;;;;2.47;0.50;;;11.70;96.70;;;;;;4963009;28;20140;-88
2023/03/05 11:58:14;;;;;;;4.28;0.82;;;11.50;96.90;;;;;;4961692;28;20050;-87
2023/03/05 12:01:02;;;;;;;6.03;0.82;;;11.70;96.20;;;;;;4975288;28;20051;-87
2023/03/05 12:03:50;;;;;;;8.50;1.15;;;11.90;95.80;;;;;;4977739;28;20073;-88
2023/03/05 12:07:00;;;;;;;8.60;0.90;;;12.20;95.80;;;;;;4975568;28;20056;-88
2023/03/05 12:09:50;;;;;;;5.82;0.80;;;13.20;94.60;;;;;;4974164;28;20169;-88
2023/03/05 12:12:46;;;;;;;4.40;0.95;;;13.60;93.80;;;;;;4969412;28;20050;-88
2023/03/05 12:15:33;;;;;;;4.30;1.33;;;13.80;93.30;;;;;;4976929;28;20145;-89
2023/03/05 12:18:23;;;;;;;2.47;0.55;;;14.20;92.90;;;;;;4993724;28;20052;-88
2023/03/05 12:21:40;;;;;;;7.18;1.60;;;14.60;91.40;;;;;;4986841;28;20368;-88
2023/03/05 12:24:26;;;;;;;8.55;1.00;;;14.80;91.00;;;;;;4977325;28;20086;-89
2023/03/05 12:27:14;;;;;;;9.55;1.30;;;13.80;91.40;;;;;;4974963;28;20107;-87
2023/03/05 12:30:02;;;;;;;5.22;1.20;;;13.60;92.40;;;;;;4992486;28;20469;-88
2023/03/05 12:32:51;;;;;;;6.28;1.05;;;13.60;92.10;;;;;;4988420;28;20397;-88
2023/03/05 12:35:39;;;;;;;7.78;1.00;;;14.10;91.30;;;;;;4973474;28;20046;-89
2023/03/05 12:38:30;;;;;;;7.97;0.77;;;13.90;90.80;;;;;;4991126;28;20046;-88
2023/03/05 12:41:22;;;;;;;4.63;0.80;;;13.60;91.10;;;;;;4991748;28;20039;-89
2023/03/05 12:44:17;;;;;;;5.78;1.50;;;13.50;91.80;;;;;;4981395;28;20050;-88
2023/03/05 12:47:14;;;;;;;8.07;0.73;;;13.00;92.50;;;;;;4971041;28;20069;-89
2023/03/05 12:50:01;;;;;;;4.68;0.80;;;13.00;91.90;;;;;;4994407;28;20137;-88
2023/03/05 12:52:47;;;;;;;4.68;1.20;;;13.30;92.20;;;;;;4980923;28;20093;-88
2023/03/05 12:55:34;;;;;;;4.55;1.25;;;13.30;93.10;;;;;;4990179;28;20050;-87
2023/03/05 12:58:38;;;;;;;4.88;0.80;;;13.50;92.60;;;;;;4989346;28;20085;-88
2023/03/05 13:01:44;;;;;;;5.82;0.70;;;13.10;91.40;;;;;;4986281;28;20398;-89
2023/03/05 13:04:34;;;;;;;5.53;1.23;;;13.60;91.50;;;;;;4992415;28;20050;-89
2023/03/05 13:07:20;;;;;;;5.25;0.80;;;14.40;91.10;;;;;;4990750;28;20141;-88
2023/03/05 13:10:19;;;;;;;10.02;1.23;;;14.90;90.00;;;;;;4999869;28;20137;-88
2023/03/05 13:13:11;;;;;;;5.82;0.90;;;14.80;87.90;;;;;;4996282;28;20121;-88
2023/03/05 13:15:57;;;;;;;12.40;1.05;;;14.80;88.30;;;;;;4973905;28;20112;-87
2023/03/05 13:18:47;;;;;;;4.70;1.25;;;14.60;88.30;;;;;;4991697;28;20069;-87
2023/03/05 13:21:34;;;;;;;5.80;0.95;;;14.00;89.60;;;;;;4977568;28;20053;-88
2023/03/05 13:24:21;;;;;;;6.45;1.45;;;12.80;91.50;;;;;;4979861;28;20057;-88
2023/03/05 13:27:40;;;;;;;9.48;0.95;;;11.40;92.90;;;;;;4977950;28;20050;-87
2023/03/05 13:30:27;;;;;;;4.25;1.50;;;10.60;94.90;;;;;;4967383;28;20092;-87
2023/03/05 13:33:17;;;;;;;3.28;0.77;;;10.00;96.60;;;;;;4995636;28;20047;-88
2023/03/05 13:36:05;;;;;;;5.88;0.93;;;9.60;97.60;;;;;;4981121;28;20503;-88
2023/03/05 13:38:52;;;;;;;7.90;1.02;;;9.60;98.40;;;;;;4970451;28;20054;-88
2023/03/05 13:41:38;;;;;;;3.78;0.80;;;10.10;98.60;;;;;;4987435;28;20047;-88
2023/03/05 13:44:24;;;;;;;4.45;0.90;;;10.70;97.30;;;;;;4988109;28;20057;-88
2023/03/05 13:47:20;;;;;;;8.40;1.20;;;10.40;97.80;;;;;;4988355;28;20069;-86
2023/03/05 13:50:08;;;;;;;5.65;1.00;;;9.30;99.90;;;;;;4981556;28;20054;-86
2023/03/05 13:52:55;;;;;;;5.38;1.05;;;8.50;99.90;;;;;;4978381;28;20093;-86
2023/03/05 13:55:41;;;;;;;8.80;1.20;;;8.20;99.90;;;;;;4985434;28;20053;-86
2023/03/05 13:58:48;;;;;;;7.03;1.15;;;8.40;99.90;;;;;;4994797;28;20124;-87
2023/03/05 14:01:42;;;;;;;5.68;0.80;;;9.20;99.90;;;;;;4980932;28;20057;-86
2023/03/05 14:04:34;;;;;;;5.93;0.77;;;9.20;99.90;;;;;;5004690;28;20082;-87
2023/03/05 14:07:38;;;;;;;7.15;0.95;;;9.10;99.90;;;;;;4992887;28;20522;-86
2023/03/05 14:10:27;;;;;;;6.60;0.93;;;9.20;99.90;;;;;;4995023;28;20047;-86
2023/03/05 14:13:19;;;;;;;5.18;1.15;;;9.60;99.90;;;;;;4976296;28;20093;-87
2023/03/05 14:16:22;;;;;;;9.10;2.10;;;9.90;99.90;;;;;;4993708;28;20074;-87
2023/03/05 14:19:37;;;;;;;6.60;1.10;;;10.50;99.90;;;;;;4993541;28;20054;-87
2023/03/05 14:22:31;;;;;;;6.32;0.63;;;11.00;99.80;;;;;;5008044;28;20054;-87
2023/03/05 14:25:38;;;;;;;7.88;1.60;;;9.90;99.90;;;;;;4993572;28;20058;-88
2023/03/05 14:28:28;;;;;;;5.22;1.17;;;9.00;99.90;;;;;;4995103;28;20050;-89
2023/03/05 14:31:16;;;;;;;6.22;0.93;;;8.50;99.90;;;;;;4977591;28;20042;-90
2023/03/05 14:34:05;;;;;;;4.45;1.08;;;9.20;99.90;;;;;;4962730;28;20058;-90
2023/03/05 14:36:55;;;;;;;4.60;0.68;;;10.00;99.90;;;;;;4999320;28;20046;-89
2023/03/05 14:39:54;;;;;;;3.67;0.60;;;10.60;99.90;;;;;;4980774;28;20050;-92
2023/03/05 14:42:57;;;;;;;5.53;1.13;;;11.20;99.90;;;;;;4978475;28;20054;-89
2023/03/05 14:45:44;;;;;;;4.72;1.05;;;12.50;99.30;;;;;;4990967;28;20054;-88
2023/03/05 14:48:31;;;;;;;1.90;0.68;;;13.00;98.10;;;;;;4961563;28;20081;-89
2023/03/05 14:51:17;;;;;;;6.60;1.02;;;13.10;97.30;;;;;;4966690;28;20050;-90